Terminal Aerodrome Forecast
Issued by NWS Portland, OR

Home | Current Version | Previous Version | Text Only | Print | Product List | Glossary On
Versions: 1 2 3 4 5 6 7 8 9 10 11 12 13 14 15 16 17 18 19 20 21 22 23
000
FTUS46 KPQR 091732
TAFAST
TAF
KAST 091732Z 0918/1018 07007KT P6SM SKC
     FM092300 17006KT P6SM BKN250
     FM100600 17005KT 4SM BR SCT004 OVC100=

USA.gov is the U.S. government's official web portal to all federal, state and local government web resources and services.